EDT,Max TemperatureF,Mean TemperatureF,Min TemperatureF,Max Dew PointF,MeanDew PointF,Min DewpointF,Max Humidity, Mean Humidity, Min Humidity, Max Sea Level PressureIn, Mean Sea Level PressureIn, Min Sea Level PressureIn, Max VisibilityMiles, Mean VisibilityMiles, Min VisibilityMiles, Max Wind SpeedMPH, Mean Wind SpeedMPH, Max Gust SpeedMPH,PrecipitationIn, CloudCover, Events, WindDirDegrees
2013-8-1,91,81,71,77,73,72,100,95,59,30.06,30.01,29.97,10,9,5,15,2,25,0.00,1,,176
2013-8-2,91,80,68,75,73,68,100,89,59,30.05,30.01,29.96,10,9,2,14,1,,0.00,1,,150
2013-8-3,91,81,71,81,75,72,100,92,63,30.07,30.03,30.00,10,8,1,23,2,,0.00,1,Rain-Thunderstorm,219
2013-8-4,93,84,75,79,76,73,100,88,52,30.07,30.02,29.95,10,9,5,12,4,,0.00,1,Rain,239
2013-8-5,93,85,77,79,77,73,100,88,52,30.02,29.98,29.90,10,7,2,12,2,,0.00,2,,10
2013-8-6,89,82,75,77,76,75,100,90,62,30.02,29.97,29.93,10,6,0,13,2,,0.00,2,Fog,95
2013-8-7,86,80,75,77,76,75,100,93,70,30.02,29.99,29.96,10,8,3,12,1,,0.00,2,,81
2013-8-8,87,79,71,79,75,72,100,93,66,30.08,30.02,29.98,10,7,1,12,1,,0.00,1,,122
2013-8-9,89,80,71,77,75,72,100,90,55,30.11,30.06,30.00,10,8,0,12,2,,0.00,2,Fog-Rain,125
2013-8-10,91,80,69,79,74,70,100,92,55,30.16,30.11,30.08,10,8,1,17,1,,0.00,1,Rain-Thunderstorm,161
2013-8-11,93,83,73,77,75,72,100,86,49,30.18,30.13,30.07,10,8,0,12,2,,0.00,0,Fog-Thunderstorm,143
2013-8-12,95,84,73,81,75,73,100,88,53,30.14,30.08,30.01,10,8,1,14,2,21,0.07,2,Rain-Thunderstorm,18
2013-8-13,93,82,71,77,74,72,100,85,49,30.05,30.00,29.91,10,8,2,9,2,,0.00,1,,213
2013-8-14,93,83,73,77,75,73,100,89,55,30.01,29.96,29.88,10,9,2,17,3,26,0.04,2,Rain-Thunderstorm,207
2013-8-15,93,82,71,77,74,72,100,92,52,30.05,29.99,29.92,10,8,4,17,2,,0.00,2,Thunderstorm,183
2013-8-16,87,79,71,77,74,72,100,95,66,30.08,30.03,29.97,10,8,2,12,2,,0.00,2,Rain,224
2013-8-17,89,81,73,77,74,73,100,94,62,30.14,30.07,30.02,10,9,2,12,1,,0.04,2,Rain-Thunderstorm,163
2013-8-18,89,80,71,79,75,72,100,93,66,30.14,30.10,30.05,10,8,3,16,2,,0.00,2,,95
2013-8-19,89,80,71,81,74,72,100,88,59,30.12,30.06,29.99,10,7,0,12,2,,0.20,2,Fog-Rain-Thunderstorm,165
2013-8-20,89,80,71,79,74,72,100,91,62,30.15,30.09,30.04,10,8,2,13,1,,0.06,3,Rain,92
2013-8-21,86,78,71,79,75,72,100,95,70,30.17,30.12,30.10,10,7,0,12,1,,0.00,1,Fog,90
2013-8-22,80,76,71,77,75,72,100,98,79,30.16,30.10,30.04,10,8,1,9,1,17,0.00,2,Rain-Thunderstorm,57
2013-8-23,86,78,71,77,73,72,100,98,70,30.07,30.04,30.01,10,8,2,12,1,,0.00,2,Rain,105
2013-8-24,82,76,71,79,74,72,100,97,79,30.17,30.09,30.04,10,9,5,10,1,,0.00,2,Rain,26
2013-8-25,80,76,69,77,73,68,100,96,79,30.22,30.18,30.14,10,8,3,16,3,,0.00,3,Rain-Thunderstorm,26
2013-8-26,84,76,69,75,72,70,100,93,70,30.21,30.15,30.09,10,9,7,17,4,,0.00,1,,15
2013-8-27,84,76,69,75,71,68,100,90,58,30.12,30.07,30.03,10,8,2,10,2,,0.00,3,,66
2013-8-28,91,78,66,73,69,66,100,82,46,30.08,30.03,29.98,10,9,4,12,1,,0.00,2,,151
2013-8-29,91,80,68,75,70,68,100,82,46,30.04,29.99,29.93,10,10,7,13,3,,0.00,1,,234
2013-8-30,95,83,71,75,74,72,100,90,47,29.98,29.94,29.87,10,6,0,18,2,31,0.03,2,Rain-Thunderstorm,306
2013-8-31,91,81,71,77,73,72,100,96,59,29.98,29.93,29.89,10,4,0,7,0,,0.00,3,Fog-Rain-Thunderstorm,50